^^
Grace C. Lehan Memorial Weather Station Historical Data
Daily Summary for February 23, 2021 Units:  English    Metric   Both
Daily Weekly Monthly Yearly
  High: Low: Average:
Temperature: 67.6 °F 52.9 °F 58.2 °F
Dew Point: 55.9 °F 49.9 °F 52.5 °F
Humidity: 90.9% 63% 82%
Wind Speed: 2.6mph 0mph 0.4mph
Wind Gust: 10mph - -
Wind- - WNW
Pressure: 30.09 in 29.87 in -
Precipitation: 0.00 in    
 
 
Tabular Data for February 23, 2021
Time Temperature Dew Point Pressure Wind Wind Speed Wind Gust Humidity Rainfall Rate (Hourly) solar
00:04 58.8 °F 54.1 °F 29.87 in West 1.5 mph 3 mph 84.5% 0.00 in 0 W/m2
00:09 58.7 °F 53.9 °F 29.87 in West 0.5 mph 6 mph 84% 0.00 in 0 W/m2
00:14 58.6 °F 53.9 °F 29.88 in WNW 2 mph 9 mph 84.3% 0.00 in 0 W/m2
00:19 58.6 °F 53.8 °F 29.88 in WNW 0.1 mph 9 mph 84% 0.00 in 0 W/m2
00:24 58.6 °F 53.8 °F 29.88 in WNW 0.2 mph 9 mph 84% 0.00 in 0 W/m2
00:29 58.6 °F 53.9 °F 29.88 in WNW 0.1 mph 9 mph 84.3% 0.00 in 0 W/m2
00:34 58.6 °F 53.8 °F 29.89 in West 0.5 mph 9 mph 84% 0.00 in 0 W/m2
00:39 58.5 °F 53.7 °F 29.89 in West 0.4 mph 6 mph 84% 0.00 in 0 W/m2
00:44 58.5 °F 53.7 °F 29.89 in West 0.2 mph 6 mph 84% 0.00 in 0 W/m2
00:49 58.5 °F 53.7 °F 29.89 in West 0.1 mph 6 mph 84% 0.00 in 0 W/m2
00:54 58.5 °F 53.7 °F 29.89 in West 0.2 mph 6 mph 84% 0.00 in 0 W/m2
00:59 58.4 °F 53.6 °F 29.89 in Calm   6 mph 84% 0.00 in 0 W/m2
01:04 58.4 °F 53.6 °F 29.89 in West 0.2 mph 6 mph 84% 0.00 in 0 W/m2
01:07 58.4 °F 53.6 °F 29.89 in Calm   3 mph 84% 0.00 in 0 W/m2
01:30 58.1 °F 53.3 °F 29.90 in Calm   5 mph 84% 0.00 in 0 W/m2
02:00 57.8 °F 53 °F 29.91 in WNW 1 mph 6 mph 84% 0.00 in 0 W/m2
03:00 57.2 °F 52.1 °F 29.93 in WNW 1 mph 7 mph 83% 0.00 in 0 W/m2
03:30 56.7 °F 51.6 °F 29.95 in WNW 1 mph 7 mph 83% 0.00 in 0 W/m2
04:04 56.3 °F 51.2 °F 29.96 in Calm   1 mph 83% 0.00 in 0 W/m2
04:09 56.2 °F 51.1 °F 29.97 in Calm   1 mph 83% 0.00 in 0 W/m2
04:14 56.2 °F 51.1 °F 29.97 in Calm   1 mph 83% 0.00 in 0 W/m2
04:19 56 °F 51 °F 29.97 in Calm   1 mph 83.3% 0.00 in 0 W/m2
04:24 55.9 °F 51.1 °F 29.97 in Calm   1 mph 84% 0.00 in 0 W/m2
04:29 55.7 °F 51 °F 29.98 in Calm   1 mph 84.1% 0.00 in 0 W/m2
04:34 55.6 °F 51.1 °F 29.98 in Calm   1 mph 85% 0.00 in 0 W/m2
04:39 55.4 °F 51.1 °F 29.98 in Calm     85.4% 0.00 in 0 W/m2
04:44 55.2 °F 51.1 °F 29.99 in Calm     86% 0.00 in 0 W/m2
04:49 55 °F 50.9 °F 29.99 in Calm     86% 0.00 in 0 W/m2
04:54 54.8 °F 50.8 °F 29.99 in Calm     86.2% 0.00 in 0 W/m2
04:59 54.6 °F 50.8 °F 29.99 in Calm     87% 0.00 in 0 W/m2
05:04 54.5 °F 50.7 °F 30.00 in Calm     87% 0.00 in 0 W/m2
05:09 54.3 °F 50.6 °F 30.00 in Calm     87.4% 0.00 in 0 W/m2
05:14 54.1 °F 50.6 °F 30.00 in Calm     88% 0.00 in 0 W/m2
05:19 53.9 °F 50.4 °F 30.00 in Calm     88% 0.00 in 0 W/m2
05:24 53.7 °F 50.2 °F 30.00 in Calm   1 mph 88% 0.00 in 0 W/m2
05:29 53.5 °F 50.1 °F 30.01 in Calm   1 mph 88.3% 0.00 in 0 W/m2
05:34 53.3 °F 50.3 °F 30.01 in NW 0.1 mph 2 mph 89.4% 0.00 in 0 W/m2
05:39 53.2 °F 50.1 °F 30.01 in NW 0.2 mph 3 mph 89.1% 0.00 in 0 W/m2
05:44 53.1 °F 50 °F 30.01 in NW 0.9 mph 4 mph 89% 0.00 in 0 W/m2
05:49 53 °F 49.9 °F 30.02 in Calm   4 mph 89.3% 0.00 in 5 W/m2
05:54 53 °F 50.2 °F 30.02 in Calm   4 mph 90% 0.00 in 7 W/m2
05:59 52.9 °F 50.1 °F 30.02 in Calm   4 mph 90% 0.00 in 12 W/m2
06:04 52.9 °F 50.1 °F 30.03 in Calm   4 mph 90% 0.00 in 18 W/m2
06:09 52.9 °F 50.1 °F 30.03 in Calm     90% 0.00 in 19 W/m2
06:14 52.9 °F 50.1 °F 30.03 in Calm     90% 0.00 in 19 W/m2
06:19 53 °F 50.2 °F 30.04 in Calm   1 mph 90% 0.00 in 21 W/m2
06:24 53.3 °F 50.7 °F 30.04 in NW 0.4 mph 3 mph 90.9% 0.00 in 23 W/m2
06:29 53.5 °F 50.6 °F 30.04 in Calm   3 mph 90% 0.00 in 32 W/m2
06:34 53.8 °F 50.9 °F 30.05 in Calm   3 mph 90% 0.00 in 44 W/m2
06:39 54 °F 51.2 °F 30.05 in Calm     90% 0.00 in 49 W/m2
06:44 54.4 °F 51.5 °F 30.05 in Calm     90% 0.00 in 56 W/m2
06:49 55.1 °F 52.1 °F 30.05 in NW 0.1 mph 2 mph 89.9% 0.00 in 67 W/m2
06:54 55.9 °F 52.7 °F 30.05 in NW 0.1 mph 3 mph 88.7% 0.00 in 69 W/m2
06:59 57 °F 53.1 °F 30.06 in Calm   3 mph 86.7% 0.00 in 70 W/m2
07:04 58.1 °F 53.5 °F 30.06 in Calm   3 mph 84.7% 0.00 in 72 W/m2
07:09 59.1 °F 53.7 °F 30.06 in NW 0.1 mph 2 mph 82.3% 0.00 in 72 W/m2
07:14 60 °F 53.6 °F 30.06 in NW 0.4 mph 5 mph 79.4% 0.00 in 74 W/m2
07:19 60.8 °F 53.7 °F 30.06 in NW 0.5 mph 5 mph 77.4% 0.00 in 76 W/m2
07:24 61.4 °F 53.7 °F 30.07 in NW 0.2 mph 5 mph 75.9% 0.00 in 206 W/m2
07:29 61.9 °F 54.2 °F 30.07 in NW 0.2 mph 5 mph 75.8% 0.00 in 355 W/m2
07:34 62.3 °F 54.4 °F 30.07 in WNW 0.4 mph 5 mph 75.2% 0.00 in 371 W/m2
07:39 62.9 °F 54.1 °F 30.07 in WNW 2.3 mph 7 mph 73.1% 0.00 in 388 W/m2
07:44 63.2 °F 54.1 °F 30.07 in NW 0.6 mph 7 mph 72.3% 0.00 in 411 W/m2
07:49 63.6 °F 54.8 °F 30.07 in NW 0.6 mph 7 mph 73% 0.00 in 431 W/m2
07:54 63.9 °F 54.4 °F 30.07 in WNW 1.8 mph 9 mph 71.1% 0.00 in 448 W/m2
07:59 64 °F 54.1 °F 30.07 in WNW 0.7 mph 9 mph 70% 0.00 in 461 W/m2
08:04 64.3 °F 53.7 °F 30.08 in WNW 0.7 mph 3 mph 68.5% 0.00 in 478 W/m2
08:09 64.3 °F 54 °F 30.08 in WNW 0.9 mph 9 mph 69.1% 0.00 in 494 W/m2
08:14 64.5 °F 54.2 °F 30.08 in West 1.1 mph 9 mph 69.3% 0.00 in 512 W/m2
08:19 64.9 °F 54.8 °F 30.08 in WNW 1.2 mph 9 mph 69.8% 0.00 in 531 W/m2
08:24 65.5 °F 54.5 °F 30.09 in WNW 1 mph 9 mph 67.7% 0.00 in 548 W/m2
08:29 65.9 °F 55.3 °F 30.09 in WNW 0.5 mph 9 mph 68.5% 0.00 in 561 W/m2
08:34 66.3 °F 55.5 °F 30.09 in NW 0.3 mph 9 mph 68.1% 0.00 in 580 W/m2
08:39 66.8 °F 55.6 °F 30.09 in WNW 0.3 mph 4 mph 67.4% 0.00 in 598 W/m2
08:44 67.3 °F 55.9 °F 30.09 in NW 0.1 mph 4 mph 66.8% 0.00 in 613 W/m2
08:49 67.6 °F 54.8 °F 30.09 in West 2.5 mph 10 mph 63.5% 0.00 in 628 W/m2
08:54 67.5 °F 54.5 °F 30.09 in WNW 2.6 mph 10 mph 63% 0.00 in 640 W/m2
08:58 67.5 °F 54.7 °F 30.09 in WNW 1.6 mph 10 mph 63.5% 0.00 in 650 W/m2
Hartford County Weather
Compliments of Weather Underground - 2 mb